Time;durP1;ratioP1;P1;durP2;ratioP2;P2;SDS_P1;SDS_P2;PMS_P1;PMS_P2;Temp;Humidity;BMP_temperature;BMP_pressure;BME280_temperature;BME280_humidity;BME280_pressure;Samples;Min_cycle;Max_cycle;Signal;HPM_P1;HPM_P2
2022/01/05 00:00:10;;;;;;;0.20;0.20;;;;;;;5.67;89.36;97179.75;5092801;28;20268;-58
2022/01/05 00:02:40;;;;;;;0.30;0.20;;;;;;;5.68;90.21;97196.13;5092595;28;20678;-56
2022/01/05 00:05:08;;;;;;;0.53;0.10;;;;;;;5.69;89.84;97171.84;5092970;28;20235;-55
2022/01/05 00:07:35;;;;;;;1.57;0.27;;;;;;;5.65;89.95;97160.19;5093036;28;20201;-56
2022/01/05 00:10:02;;;;;;;0.43;0.27;;;;;;;5.67;90.70;97156.47;5091557;28;20281;-52
2022/01/05 00:12:29;;;;;;;0.67;0.30;;;;;;;5.62;90.94;97169.06;5090098;28;20289;-55
2022/01/05 00:14:55;;;;;;;1.00;0.30;;;;;;;5.60;91.67;97158.88;5092792;28;20194;-56
2022/01/05 00:17:22;;;;;;;1.43;0.30;;;;;;;5.64;93.01;97171.50;5092320;28;20563;-55
2022/01/05 00:19:50;;;;;;;2.33;0.30;;;;;;;5.66;91.20;97166.97;5092697;28;20196;-54
2022/01/05 00:22:17;;;;;;;0.77;0.23;;;;;;;5.68;91.57;97145.13;5092757;28;20221;-55
2022/01/05 00:24:44;;;;;;;0.83;0.30;;;;;;;5.68;91.37;97149.50;5092034;28;20273;-56
2022/01/05 00:27:10;;;;;;;1.43;0.30;;;;;;;5.68;91.79;97139.97;5092543;28;20216;-56
2022/01/05 00:29:38;;;;;;;0.50;0.40;;;;;;;5.65;91.86;97129.91;5090419;28;20182;-54
2022/01/05 00:32:06;;;;;;;0.63;0.33;;;;;;;5.66;91.74;97121.19;5086907;28;20655;-56
2022/01/05 00:34:32;;;;;;;1.87;0.30;;;;;;;5.65;92.83;97129.13;5072012;28;20195;-56
2022/01/05 00:37:01;;;;;;;1.07;0.50;;;;;;;5.68;91.23;97129.59;5072005;28;20241;-55
2022/01/05 00:39:27;;;;;;;1.43;0.40;;;;;;;5.67;92.24;97133.16;5071475;28;20187;-55
2022/01/05 00:41:54;;;;;;;2.33;0.63;;;;;;;5.69;91.34;97122.66;5072049;28;20576;-56
2022/01/05 00:44:21;;;;;;;4.33;1.60;;;;;;;5.71;91.23;97115.53;5078091;28;20195;-55
2022/01/05 00:46:48;;;;;;;2.33;0.60;;;;;;;5.73;91.23;97111.81;5071013;28;20203;-55
2022/01/05 00:49:15;;;;;;;1.03;0.50;;;;;;;5.79;90.36;97125.09;5071275;28;20193;-55
2022/01/05 00:51:42;;;;;;;2.00;0.40;;;;;;;5.81;88.52;97124.00;5071331;28;20200;-56
2022/01/05 00:54:10;;;;;;;2.23;0.53;;;;;;;5.84;89.47;97138.38;5071383;28;20186;-56
2022/01/05 00:56:36;;;;;;;0.43;0.27;;;;;;;5.85;88.53;97130.44;5071730;28;20568;-56
2022/01/05 00:59:03;;;;;;;2.53;0.30;;;;;;;5.89;87.74;97152.47;5071628;28;20197;-56
2022/01/05 01:01:30;;;;;;;0.60;0.30;;;;;;;5.93;87.98;97160.75;5070704;28;20236;-56
2022/01/05 01:03:57;;;;;;;0.40;0.30;;;;;;;5.95;88.42;97158.81;5071436;28;20195;-55
2022/01/05 01:06:24;;;;;;;1.27;0.30;;;;;;;5.93;89.43;97167.69;5071314;28;20314;-55
2022/01/05 01:08:52;;;;;;;2.43;0.30;;;;;;;5.89;89.61;97169.81;5076819;28;20247;-56
2022/01/05 01:11:20;;;;;;;1.37;0.30;;;;;;;5.80;91.49;97168.97;5091515;28;20192;-57
2022/01/05 01:13:46;;;;;;;1.60;0.20;;;;;;;5.80;89.86;97163.81;5092024;28;20190;-56
2022/01/05 01:16:13;;;;;;;0.40;0.27;;;;;;;5.75;90.85;97177.19;5091221;28;20217;-55
2022/01/05 01:18:40;;;;;;;0.67;0.20;;;;;;;5.68;90.19;97178.00;5091613;28;20557;-54
2022/01/05 01:21:08;;;;;;;0.33;0.20;;;;;;;5.70;89.94;97189.00;5091166;28;20547;-53
2022/01/05 01:23:36;;;;;;;1.97;0.30;;;;;;;5.65;91.72;97186.88;5090815;28;20193;-56
2022/01/05 01:26:03;;;;;;;1.93;0.33;;;;;;;5.59;92.94;97187.47;5091475;28;20201;-55
2022/01/05 01:28:31;;;;;;;0.93;0.40;;;;;;;5.55;93.10;97186.16;5091656;28;20225;-57
2022/01/05 01:30:58;;;;;;;0.63;0.20;;;;;;;5.57;93.78;97204.94;5090503;28;20186;-57
2022/01/05 01:33:25;;;;;;;0.37;0.20;;;;;;;5.51;91.97;97185.69;5075714;28;20204;-55
2022/01/05 01:35:51;;;;;;;0.53;0.23;;;;;;;5.45;93.95;97202.63;5070825;28;20215;-51
2022/01/05 01:38:18;;;;;;;0.73;0.40;;;;;;;5.43;95.90;97214.09;5072246;28;20179;-57
2022/01/05 01:40:45;;;;;;;0.70;0.40;;;;;;;5.39;94.82;97211.00;5090975;28;20186;-55
2022/01/05 01:43:12;;;;;;;2.67;0.40;;;;;;;5.34;94.40;97209.84;5085040;28;20198;-54
2022/01/05 01:45:40;;;;;;;1.17;0.40;;;;;;;5.29;95.37;97194.78;5083976;28;20587;-58
2022/01/05 01:48:06;;;;;;;0.90;0.40;;;;;;;5.32;95.73;97212.56;5089531;28;20213;-57
2022/01/05 01:50:33;;;;;;;0.30;0.30;;;;;;;5.32;94.94;97228.91;5090782;28;20250;-53
2022/01/05 01:53:00;;;;;;;0.60;0.40;;;;;;;5.25;96.88;97238.25;5090924;28;20189;-54
2022/01/05 01:55:27;;;;;;;0.50;0.40;;;;;;;5.21;97.05;97238.72;5091222;28;20198;-56
2022/01/05 01:57:54;;;;;;;0.80;0.40;;;;;;;5.12;97.06;97238.66;5090894;28;20185;-52
2022/01/05 02:00:21;;;;;;;1.03;0.57;;;;;;;5.14;97.12;97226.38;5088760;28;20654;-57
2022/01/05 02:02:49;;;;;;;0.53;0.37;;;;;;;5.11;96.44;97231.03;5091077;28;20570;-55
2022/01/05 02:05:17;;;;;;;0.57;0.50;;;;;;;5.13;96.92;97203.22;5089550;28;20288;-55
2022/01/05 02:07:43;;;;;;;0.80;0.53;;;;;;;5.13;97.32;97221.34;5090198;28;20717;-56
2022/01/05 02:10:11;;;;;;;2.43;0.40;;;;;;;5.08;95.05;97190.78;5090268;28;20273;-56
2022/01/05 02:12:38;;;;;;;0.60;0.40;;;;;;;5.09;95.01;97196.75;5090840;28;20235;-57
2022/01/05 02:15:06;;;;;;;0.30;0.30;;;;;;;5.09;94.84;97200.16;5090622;28;20243;-55
2022/01/05 02:17:45;;;;;;;0.30;0.30;;;;;;;5.08;94.71;97197.69;5090921;28;20190;-56
2022/01/05 02:20:16;;;;;;;0.33;0.30;;;;;;;5.09;97.70;97199.31;5090155;28;20660;-55
2022/01/05 02:22:44;;;;;;;0.50;0.30;;;;;;;5.13;95.24;97195.47;5090314;28;20205;-55
2022/01/05 02:25:11;;;;;;;0.60;0.30;;;;;;;5.19;96.27;97204.41;5089194;28;20427;-56
2022/01/05 02:27:40;;;;;;;1.50;0.20;;;;;;;5.25;94.87;97211.56;5090577;28;20224;-58
2022/01/05 02:30:09;;;;;;;0.97;0.30;;;;;;;5.26;93.67;97213.19;5089843;28;20182;-53
2022/01/05 02:32:36;;;;;;;1.03;0.30;;;;;;;5.29;93.26;97202.53;5090966;28;20189;-59
2022/01/05 02:35:03;;;;;;;1.63;0.23;;;;;;;5.30;92.83;97206.75;5090826;28;20604;-58
2022/01/05 02:37:30;;;;;;;0.80;0.30;;;;;;;5.34;93.21;97194.31;5089838;28;20269;-56
2022/01/05 02:39:59;;;;;;;0.40;0.30;;;;;;;5.37;92.03;97205.16;5089756;28;20576;-54
2022/01/05 02:42:27;;;;;;;1.23;0.30;;;;;;;5.35;91.66;97201.09;5091007;28;20539;-56
2022/01/05 02:44:54;;;;;;;0.30;0.20;;;;;;;5.37;91.38;97219.88;5080766;28;20198;-55
2022/01/05 02:47:22;;;;;;;1.83;0.20;;;;;;;5.38;91.54;97219.72;5087269;28;20612;-55
2022/01/05 02:49:49;;;;;;;0.50;0.30;;;;;;;5.42;90.44;97233.97;5089741;28;20188;-57
2022/01/05 02:52:17;;;;;;;2.00;0.30;;;;;;;5.43;91.58;97227.84;5090058;28;20217;-58
2022/01/05 02:54:44;;;;;;;0.80;0.40;;;;;;;5.43;90.66;97221.88;5090735;28;20189;-56
2022/01/05 02:57:13;;;;;;;1.40;0.30;;;;;;;5.43;91.15;97225.25;5090119;28;20701;-56
2022/01/05 02:59:40;;;;;;;1.60;0.33;;;;;;;5.42;92.02;97233.19;5089526;28;20189;-54
2022/01/05 03:02:07;;;;;;;0.37;0.30;;;;;;;5.46;91.33;97227.53;5090257;28;20193;-58
2022/01/05 03:04:34;;;;;;;1.07;0.43;;;;;;;5.46;90.84;97229.31;5090617;28;20274;-56
2022/01/05 03:07:02;;;;;;;0.30;0.30;;;;;;;5.46;88.47;97237.09;5089548;28;20198;-56
2022/01/05 03:09:29;;;;;;;0.83;0.40;;;;;;;5.55;89.15;97238.75;5090318;28;20189;-57
2022/01/05 03:11:56;;;;;;;1.63;0.30;;;;;;;5.54;89.84;97233.72;5092209;28;20232;-56
2022/01/05 03:14:25;;;;;;;0.30;0.30;;;;;;;5.58;89.50;97245.41;5093428;28;20544;-53
2022/01/05 03:16:52;;;;;;;0.80;0.30;;;;;;;5.58;89.17;97240.22;5093774;28;20567;-56
2022/01/05 03:19:18;;;;;;;2.30;0.40;;;;;;;5.62;86.80;97236.34;5094181;28;20191;-57
2022/01/05 03:21:45;;;;;;;0.73;0.40;;;;;;;5.57;88.48;97259.31;5092769;28;20227;-57
2022/01/05 03:24:12;;;;;;;0.83;0.40;;;;;;;5.66;86.07;97258.38;5093895;28;20184;-55
2022/01/05 03:26:38;;;;;;;0.53;0.43;;;;;;;5.65;87.34;97248.19;5093615;28;20748;-55
2022/01/05 03:29:05;;;;;;;2.00;0.60;;;;;;;5.65;88.40;97248.19;5080216;28;20219;-58
2022/01/05 03:31:33;;;;;;;0.77;0.50;;;;;;;5.62;86.72;97246.72;5072907;28;20187;-58
2022/01/05 03:34:00;;;;;;;1.33;0.53;;;;;;;5.58;89.14;97253.16;5073332;28;20631;-56
2022/01/05 03:36:27;;;;;;;1.37;0.43;;;;;;;5.59;88.29;97257.38;5073087;28;20301;-55
2022/01/05 03:38:54;;;;;;;1.33;0.40;;;;;;;5.56;87.75;97263.69;5073137;28;20189;-56
2022/01/05 03:41:20;;;;;;;3.33;0.60;;;;;;;5.58;89.75;97282.47;5072763;28;20187;-56
2022/01/05 03:43:47;;;;;;;1.83;0.50;;;;;;;5.57;89.67;97293.78;5072997;28;20269;-52
2022/01/05 03:46:14;;;;;;;1.67;0.67;;;;;;;5.44;91.62;97307.09;5080389;28;20500;-56
2022/01/05 03:48:42;;;;;;;1.03;0.60;;;;;;;5.36;91.41;97314.81;5090224;28;20210;-54
2022/01/05 03:51:09;;;;;;;2.60;0.83;;;;;;;5.35;92.75;97326.13;5091880;28;20610;-56
2022/01/05 03:53:36;;;;;;;1.23;0.73;;;;;;;5.25;93.37;97346.91;5092429;28;20209;-54
2022/01/05 03:56:03;;;;;;;3.03;0.90;;;;;;;5.27;92.11;97354.53;5080659;28;20692;-56
2022/01/05 03:58:30;;;;;;;1.40;1.10;;;;;;;5.10;95.66;97375.06;5092519;28;20182;-54
2022/01/05 04:00:57;;;;;;;2.17;1.07;;;;;;;5.12;97.58;97399.03;5092383;28;20237;-58
2022/01/05 04:03:23;;;;;;;3.67;1.30;;;;;;;4.91;97.55;97414.78;5093167;28;20202;-53
2022/01/05 04:05:52;;;;;;;2.93;1.30;;;;;;;4.81;97.36;97412.25;5092660;28;20206;-56
2022/01/05 04:08:18;;;;;;;1.83;1.37;;;;;;;4.81;96.02;97419.19;5092931;28;20218;-55
2022/01/05 04:10:45;;;;;;;1.40;1.10;;;;;;;4.76;95.90;97417.06;5092376;28;20187;-55
2022/01/05 04:13:13;;;;;;;2.30;1.30;;;;;;;4.74;96.04;97431.88;5091280;28;20205;-58
2022/01/05 04:15:40;;;;;;;3.23;1.40;;;;;;;4.71;97.94;97424.41;5092803;28;20621;-57
2022/01/05 04:18:07;;;;;;;1.93;1.40;;;;;;;4.75;97.04;97443.84;5090488;28;20182;-57
2022/01/05 04:20:34;;;;;;;1.73;1.50;;;;;;;4.61;94.65;97441.75;5088425;28;20286;-59
2022/01/05 04:23:02;;;;;;;1.50;1.40;;;;;;;4.63;93.35;97452.75;5091711;28;20190;-58
2022/01/05 04:25:30;;;;;;;1.40;1.30;;;;;;;4.59;93.16;97465.16;5091394;28;20436;-54
2022/01/05 04:27:57;;;;;;;2.90;1.00;;;;;;;4.42;90.15;97485.59;5091611;28;20714;-56
2022/01/05 04:30:24;;;;;;;1.27;0.60;;;;;;;4.26;88.92;97482.78;5090347;28;20661;-57
2022/01/05 04:32:51;;;;;;;0.47;0.40;;;;;;;4.17;89.40;97492.19;5089137;28;20198;-58
2022/01/05 04:35:18;;;;;;;1.03;0.80;;;;;;;4.06;89.67;97505.25;5088686;28;20214;-57
2022/01/05 04:38:52;;;;;;;2.20;0.60;;;;;;;4.03;88.81;97501.16;5087932;28;20178;-57
2022/01/05 04:41:39;;;;;;;0.80;0.80;;;;;;;3.89;89.13;97497.22;5068714;28;20201;-57
2022/01/05 04:44:54;;;;;;;1.67;0.80;;;;;;;3.82;88.96;97532.28;5089546;28;20286;-56
2022/01/05 04:47:58;;;;;;;;;;;;;;;;;;;;;
2022/01/05 04:54:07;;;;;;;1.00;0.90;;;;;;;3.48;86.12;97525.72;5089833;28;20232;-57
2022/01/05 04:57:09;;;;;;;2.23;1.10;;;;;;;3.49;87.09;97539.44;5091875;28;20221;-57
2022/01/05 04:59:55;;;;;;;1.90;1.00;;;;;;;3.46;87.58;97552.59;5090687;28;20193;-55
2022/01/05 05:02:43;;;;;;;1.57;0.80;;;;;;;3.44;86.77;97544.16;5089182;28;20947;-58
2022/01/05 05:05:34;;;;;;;1.23;0.90;;;;;;;3.40;86.60;97552.16;5090040;28;20221;-58
2022/01/05 05:08:19;;;;;;;1.30;0.53;;;;;;;3.42;83.14;97566.69;5088949;28;20221;-57
2022/01/05 05:11:05;;;;;;;5.40;0.70;;;;;;;3.36;85.25;97557.75;5088944;28;20246;-59
2022/01/05 05:13:52;;;;;;;0.80;0.60;;;;;;;3.32;85.02;97558.94;5090203;28;20678;-57
2022/01/05 05:16:39;;;;;;;0.90;0.70;;;;;;;3.34;85.83;97565.59;5091270;28;20339;-58
2022/01/05 05:19:24;;;;;;;1.43;0.77;;;;;;;3.33;87.48;97579.44;5088263;28;20445;-59
2022/01/05 05:22:10;;;;;;;4.03;1.00;;;;;;;3.40;85.29;97598.59;5089738;28;20197;-55
2022/01/05 05:24:55;;;;;;;0.80;0.70;;;;;;;3.38;84.35;97595.34;5089890;28;20412;-58
2022/01/05 05:27:41;;;;;;;1.17;0.87;;;;;;;3.30;86.41;97596.94;5087783;28;20207;-58
2022/01/05 05:30:28;;;;;;;2.53;0.60;;;;;;;3.25;85.86;97616.22;5088239;28;20677;-57
2022/01/05 05:33:13;;;;;;;1.60;0.93;;;;;;;3.12;86.86;97605.28;5077793;28;20202;-58
2022/01/05 05:35:58;;;;;;;2.13;0.90;;;;;;;3.06;87.27;97619.53;5070422;28;20217;-58
2022/01/05 05:38:44;;;;;;;2.53;0.93;;;;;;;3.16;85.05;97631.66;5070718;28;20733;-58
2022/01/05 05:41:29;;;;;;;3.33;0.63;;;;;;;3.12;86.78;97640.59;5069725;28;20292;-57
2022/01/05 05:44:15;;;;;;;1.37;0.70;;;;;;;3.09;85.92;97647.63;5070389;28;20244;-56
2022/01/05 05:47:02;;;;;;;4.73;0.80;;;;;;;3.10;87.05;97649.25;5072949;28;20225;-59
2022/01/05 05:49:48;;;;;;;2.07;1.00;;;;;;;3.05;85.55;97653.16;5073929;28;20259;-56
2022/01/05 05:52:33;;;;;;;1.70;0.90;;;;;;;3.10;86.23;97658.75;5070528;28;20273;-57
2022/01/05 05:55:19;;;;;;;4.10;0.93;;;;;;;3.02;86.89;97674.88;5070195;28;20584;-58
2022/01/05 05:58:04;;;;;;;1.77;1.00;;;;;;;3.01;88.43;97670.66;5070326;28;20196;-59
2022/01/05 06:00:49;;;;;;;1.00;0.87;;;;;;;3.01;88.32;97685.28;5069547;28;20683;-57
2022/01/05 06:03:36;;;;;;;1.37;1.00;;;;;;;3.03;85.63;97684.22;5070078;28;20232;-58
2022/01/05 06:06:22;;;;;;;2.20;1.13;;;;;;;2.85;87.92;97693.47;5070218;28;20821;-56
2022/01/05 06:09:07;;;;;;;1.47;1.10;;;;;;;2.89;88.41;97702.59;5069826;28;20216;-57
2022/01/05 06:11:53;;;;;;;2.80;1.20;;;;;;;2.86;88.26;97697.69;5069099;28;20674;-59
2022/01/05 06:14:38;;;;;;;3.13;1.20;;;;;;;2.87;87.36;97707.06;5070237;28;20181;-57
2022/01/05 06:17:23;;;;;;;2.90;1.30;;;;;;;2.85;86.40;97721.81;5088312;28;20338;-57
2022/01/05 06:20:12;;;;;;;3.13;1.43;;;;;;;2.77;89.07;97719.84;5085343;28;20297;-60
2022/01/05 06:22:58;;;;;;;3.93;1.70;;;;;;;2.64;88.15;97736.31;5085739;28;20554;-56
2022/01/05 06:25:43;;;;;;;10.63;5.77;;;;;;;2.70;86.30;97753.03;5090284;28;20234;-59
2022/01/05 06:28:28;;;;;;;13.20;6.13;;;;;;;2.58;87.16;97757.41;5090166;28;20213;-57
2022/01/05 06:31:14;;;;;;;8.67;5.13;;;;;;;2.54;87.87;97752.59;5089252;28;20262;-56
2022/01/05 06:33:59;;;;;;;7.17;4.60;;;;;;;2.47;88.31;97768.56;5089541;28;20275;-59
2022/01/05 06:36:46;;;;;;;7.43;4.00;;;;;;;2.41;87.52;97778.53;5090123;28;20225;-57
2022/01/05 06:39:31;;;;;;;3.70;2.20;;;;;;;2.47;86.46;97783.19;5090064;28;20304;-60
2022/01/05 06:42:17;;;;;;;6.77;2.27;;;;;;;2.41;86.62;97793.97;5089744;28;20678;-57
2022/01/05 06:45:03;;;;;;;6.20;2.57;;;;;;;2.33;86.01;97816.00;5089820;28;20208;-56
2022/01/05 06:47:48;;;;;;;5.00;1.90;;;;;;;2.29;87.81;97803.47;5093202;28;20205;-56
2022/01/05 06:50:34;;;;;;;3.43;1.57;;;;;;;2.28;86.62;97817.28;5077522;28;20324;-60
2022/01/05 06:53:21;;;;;;;2.97;2.10;;;;;;;2.29;88.10;97821.50;5073372;28;20568;-58
2022/01/05 06:56:06;;;;;;;5.77;3.00;;;;;;;2.26;88.07;97822.56;5072995;28;20214;-55
2022/01/05 06:58:51;;;;;;;5.90;2.50;;;;;;;2.27;88.89;97821.63;5073254;28;20331;-57
2022/01/05 07:01:37;;;;;;;6.73;2.73;;;;;;;2.25;88.26;97828.66;5072480;28;20249;-57
2022/01/05 07:04:22;;;;;;;6.87;2.70;;;;;;;2.32;88.59;97839.28;5087517;28;20690;-59
2022/01/05 07:07:08;;;;;;;8.83;4.43;;;;;;;2.31;88.09;97842.78;5094140;28;20259;-57
2022/01/05 07:09:54;;;;;;;6.20;2.67;;;;;;;2.29;86.55;97854.97;5089906;28;20298;-54
2022/01/05 07:12:41;;;;;;;6.40;2.60;;;;;;;2.26;87.74;97848.31;5092240;28;20201;-56
2022/01/05 07:15:26;;;;;;;5.20;2.50;;;;;;;2.30;86.24;97862.59;5093395;28;20575;-57
2022/01/05 07:18:12;;;;;;;10.07;2.93;;;;;;;2.28;87.29;97863.63;5093128;28;20204;-57
2022/01/05 07:20:57;;;;;;;6.87;2.63;;;;;;;2.33;85.81;97887.28;5092566;28;20192;-56
2022/01/05 07:23:42;;;;;;;5.83;2.63;;;;;;;2.30;87.59;97900.38;5092509;28;20200;-59
2022/01/05 07:26:29;;;;;;;8.77;4.03;;;;;;;2.26;87.94;97896.41;5092869;28;20233;-57
2022/01/05 07:29:19;;;;;;;9.03;4.57;;;;;;;2.30;89.07;97893.50;5093005;28;20232;-58
2022/01/05 07:32:05;;;;;;;10.37;4.80;;;;;;;2.27;86.76;97898.03;5092461;28;20204;-58
2022/01/05 07:34:50;;;;;;;7.47;2.30;;;;;;;2.30;85.27;97910.69;5092098;28;20205;-58
2022/01/05 07:37:36;;;;;;;6.40;2.27;;;;;;;2.20;86.30;97918.31;5093048;28;20193;-57
2022/01/05 07:40:21;;;;;;;8.33;2.33;;;;;;;2.25;86.17;97918.78;5091714;28;20193;-57
2022/01/05 07:43:08;;;;;;;7.47;3.17;;;;;;;2.25;87.74;97921.34;5092927;28;20308;-57
2022/01/05 07:45:54;;;;;;;8.67;2.27;;;;;;;2.29;87.08;97930.47;5092851;28;20221;-59
2022/01/05 07:48:39;;;;;;;12.13;3.10;;;;;;;2.35;86.11;97932.59;5090039;28;20582;-59
2022/01/05 07:51:24;;;;;;;4.53;2.63;;;;;;;2.42;87.47;97940.66;5084187;28;20287;-57
2022/01/05 07:54:10;;;;;;;5.43;2.53;;;;;;;2.30;83.47;97939.00;5092830;28;20204;-57
2022/01/05 07:56:55;;;;;;;8.23;2.63;;;;;;;2.27;84.05;97944.41;5091904;28;20595;-58
2022/01/05 07:59:42;;;;;;;6.33;2.47;;;;;;;2.27;83.31;97957.28;5091984;28;20193;-56
2022/01/05 08:02:27;;;;;;;13.90;3.00;;;;;;;2.16;82.72;97970.97;5092626;28;20201;-59
2022/01/05 08:05:13;;;;;;;5.60;2.33;;;;;;;2.08;80.78;97978.44;5093610;28;20235;-58
2022/01/05 08:07:58;;;;;;;11.00;2.77;;;;;;;2.02;81.86;97984.84;5093406;28;20220;-57
2022/01/05 08:10:44;;;;;;;7.57;2.40;;;;;;;1.96;80.36;97993.84;5091906;28;20193;-57
2022/01/05 08:13:29;;;;;;;8.07;2.33;;;;;;;2.01;78.51;97993.50;5092638;28;20204;-58
2022/01/05 08:16:16;;;;;;;6.67;2.33;;;;;;;2.07;79.17;97990.50;5092752;28;20793;-58
2022/01/05 08:19:01;;;;;;;9.73;2.93;;;;;;;2.09;77.10;97990.38;5092767;28;20260;-56
2022/01/05 08:21:47;;;;;;;8.37;2.70;;;;;;;2.10;77.54;97990.28;5092189;28;20294;-57
2022/01/05 08:24:32;;;;;;;13.20;3.30;;;;;;;2.07;77.91;97990.50;5071615;28;20268;-58
2022/01/05 08:27:18;;;;;;;7.67;2.30;;;;;;;2.06;76.78;98007.69;5072459;28;20203;-59
2022/01/05 08:30:06;;;;;;;6.97;2.20;;;;;;;2.06;78.52;98004.31;5071360;28;20213;-59
2022/01/05 08:32:53;;;;;;;10.90;3.07;;;;;;;2.10;76.91;98007.47;5079738;28;20205;-54
2022/01/05 08:35:39;;;;;;;11.57;2.60;;;;;;;1.96;75.10;98003.31;5091975;28;20377;-59
2022/01/05 08:38:24;;;;;;;12.83;2.57;;;;;;;2.04;76.64;98017.25;5091452;28;20678;-59
2022/01/05 08:41:10;;;;;;;9.57;3.73;;;;;;;1.94;76.42;98012.91;5091092;28;20275;-57
2022/01/05 08:43:55;;;;;;;13.00;3.40;;;;;;;1.94;77.53;98026.59;5091381;28;20212;-60
2022/01/05 08:46:41;;;;;;;9.60;2.10;;;;;;;1.86;76.34;98024.56;5091343;28;20220;-55
2022/01/05 08:49:27;;;;;;;6.60;2.43;;;;;;;1.79;74.26;98027.69;5091002;28;20591;-56
2022/01/05 08:52:13;;;;;;;4.90;2.70;;;;;;;1.70;74.50;98042.03;5080315;28;20210;-58
2022/01/05 08:54:58;;;;;;;8.10;1.87;;;;;;;1.58;71.23;98034.25;5091257;28;20212;-57
2022/01/05 08:57:44;;;;;;;12.43;2.70;;;;;;;1.53;70.54;98041.47;5092243;28;20322;-57
2022/01/05 09:00:30;;;;;;;7.17;2.30;;;;;;;1.48;72.69;98038.41;5091001;28;20295;-57
2022/01/05 09:03:17;;;;;;;10.23;2.57;;;;;;;1.35;71.14;98032.47;5088511;28;20221;-57
2022/01/05 09:06:06;;;;;;;15.33;2.90;;;;;;;1.34;72.23;98047.09;5090659;28;20706;-56
2022/01/05 09:08:52;;;;;;;7.43;2.13;;;;;;;1.35;72.40;98059.03;5084512;28;20224;-57
2022/01/05 09:11:19;;;;;;;11.13;4.47;;;;;;;1.37;74.11;98058.91;5091266;28;20272;-58
2022/01/05 09:13:46;;;;;;;8.50;2.13;;;;;;;1.40;74.72;98053.56;5091359;28;20255;-56
2022/01/05 09:16:13;;;;;;;9.53;2.03;;;;;;;1.51;75.32;98058.78;5091681;28;20208;-58
2022/01/05 09:18:39;;;;;;;9.60;2.63;;;;;;;1.61;73.94;98071.78;5087249;28;20824;-58
2022/01/05 09:21:08;;;;;;;9.50;2.33;;;;;;;1.82;73.17;98078.94;5089601;28;20194;-57
2022/01/05 09:23:34;;;;;;;11.80;2.37;;;;;;;1.97;72.55;98077.84;5091221;28;20609;-57
2022/01/05 09:26:02;;;;;;;10.00;4.00;;;;;;;2.12;73.22;98081.06;5091195;28;20220;-58
2022/01/05 09:28:29;;;;;;;10.77;2.57;;;;;;;1.91;71.96;98083.44;5091720;28;20217;-54
2022/01/05 09:30:56;;;;;;;8.60;2.57;;;;;;;2.03;71.81;98086.91;5090700;28;20707;-57
2022/01/05 09:33:23;;;;;;;9.47;3.27;;;;;;;1.99;72.23;98096.59;5091116;28;20273;-55
2022/01/05 09:36:04;;;;;;;7.90;2.77;;;;;;;2.06;72.23;98104.69;5091261;28;20220;-57
2022/01/05 09:41:56;;;;;;;11.23;2.80;;;;;;;1.91;71.59;98104.84;5090759;28;20268;-57
2022/01/05 09:44:10;;;;;;;8.80;2.27;;;;;;;1.82;73.14;98112.38;5091232;28;20213;-58
2022/01/05 09:46:55;;;;;;;11.13;3.53;;;;;;;2.00;71.85;98110.28;5090998;28;20295;-58
2022/01/05 09:49:27;;;;;;;7.33;3.07;;;;;;;2.17;72.08;98114.22;5091524;28;20213;-58
2022/01/05 09:52:01;;;;;;;8.90;2.70;;;;;;;2.16;72.37;98126.25;5084815;28;20205;-56
2022/01/05 09:54:29;;;;;;;8.07;3.03;;;;;;;2.31;71.76;98131.25;5082234;28;20674;-58
2022/01/05 09:56:57;;;;;;;9.13;3.50;;;;;;;2.26;71.07;98128.19;5087049;28;20214;-58
2022/01/05 09:59:25;;;;;;;9.57;2.83;;;;;;;2.39;70.65;98134.09;5088483;28;20185;-56
2022/01/05 10:01:52;;;;;;;11.17;2.70;;;;;;;2.28;70.51;98142.59;5089284;28;20233;-57
2022/01/05 10:04:18;;;;;;;12.23;3.17;;;;;;;2.22;70.72;98145.63;5090990;28;20310;-58
2022/01/05 10:06:45;;;;;;;8.73;2.67;;;;;;;2.21;70.38;98143.97;5091266;28;20208;-60
2022/01/05 10:09:12;;;;;;;12.60;2.93;;;;;;;2.22;70.99;98151.56;5090893;28;20203;-58
2022/01/05 10:11:40;;;;;;;11.40;2.70;;;;;;;2.25;69.78;98149.72;5090439;28;20190;-60
2022/01/05 10:14:09;;;;;;;8.73;2.93;;;;;;;2.31;69.13;98141.53;5090803;28;20190;-59
2022/01/05 10:16:35;;;;;;;16.00;2.93;;;;;;;2.13;69.60;98144.50;5090616;28;20224;-58
2022/01/05 10:19:03;;;;;;;9.17;2.73;;;;;;;2.12;69.50;98137.72;5086542;28;20192;-57
2022/01/05 10:21:35;;;;;;;10.20;3.03;;;;;;;1.94;69.88;98145.00;5091778;28;20197;-58
2022/01/05 10:24:02;;;;;;;12.23;3.13;;;;;;;1.99;72.31;98148.06;5093941;28;20212;-58
2022/01/05 10:26:30;;;;;;;12.63;3.10;;;;;;;2.14;69.79;98160.78;5087959;28;20312;-58
2022/01/05 10:29:01;;;;;;;15.23;2.83;;;;;;;2.22;71.28;98154.16;5089380;28;20254;-58
2022/01/05 10:31:32;;;;;;;11.63;2.77;;;;;;;2.18;69.88;98163.03;5094349;28;20242;-58
2022/01/05 10:33:59;;;;;;;12.70;2.93;;;;;;;2.24;68.12;98158.38;5095231;28;20201;-58
2022/01/05 10:36:44;;;;;;;12.20;2.30;;;;;;;2.11;66.16;98169.56;5095012;28;20216;-58
2022/01/05 10:39:11;;;;;;;9.97;2.60;;;;;;;2.05;67.12;98163.06;5094644;28;20200;-58
2022/01/05 10:41:39;;;;;;;9.23;2.10;;;;;;;2.05;69.36;98167.41;5094128;28;20186;-58
2022/01/05 10:44:18;;;;;;;8.20;2.30;;;;;;;2.12;67.70;98176.31;5095147;28;20192;-58
2022/01/05 10:46:48;;;;;;;9.63;2.53;;;;;;;1.99;69.29;98173.00;5094291;28;20209;-58
2022/01/05 10:49:27;;;;;;;9.10;2.13;;;;;;;1.95;66.67;98179.28;5094690;28;20194;-57
2022/01/05 10:51:55;;;;;;;8.57;2.30;;;;;;;1.96;68.26;98183.50;5090735;28;20220;-56
2022/01/05 10:54:24;;;;;;;13.83;2.87;;;;;;;1.96;66.71;98189.47;5082500;28;20277;-57
2022/01/05 10:56:51;;;;;;;10.60;2.43;;;;;;;2.13;62.71;98201.16;5091099;28;20205;-57
2022/01/05 10:59:42;;;;;;;6.57;2.03;;;;;;;2.10;65.40;98198.81;5094395;28;20268;-58
2022/01/05 11:02:27;;;;;;;10.63;2.17;;;;;;;2.04;67.61;98186.38;5093500;28;20190;-58
2022/01/05 11:04:58;;;;;;;7.80;2.23;;;;;;;2.10;67.76;98191.09;5091568;28;20290;-57
2022/01/05 11:07:28;;;;;;;11.93;2.00;;;;;;;2.13;66.36;98196.00;5093076;28;20200;-57
2022/01/05 11:09:58;;;;;;;14.90;2.17;;;;;;;2.15;64.64;98191.56;5091129;28;20243;-56
2022/01/05 11:12:33;;;;;;;9.80;2.27;;;;;;;2.14;67.18;98184.78;5093897;28;20193;-55
2022/01/05 11:15:23;;;;;;;11.03;1.90;;;;;;;2.18;67.84;98187.97;5091836;28;20670;-58
2022/01/05 11:18:10;;;;;;;8.30;1.80;;;;;;;2.25;68.65;98185.75;5093414;28;20182;-56
2022/01/05 11:20:39;;;;;;;9.80;2.20;;;;;;;2.34;64.36;98185.09;5091358;28;20186;-59
2022/01/05 11:23:07;;;;;;;13.17;2.40;;;;;;;2.37;66.91;98182.31;5089855;28;20195;-58
2022/01/05 11:25:36;;;;;;;15.40;2.97;;;;;;;2.40;66.62;98179.53;5089417;28;20952;-58
2022/01/05 11:28:04;;;;;;;11.60;1.93;;;;;;;2.39;67.22;98189.94;5091047;28;20217;-57
2022/01/05 11:30:35;;;;;;;12.13;2.10;;;;;;;2.46;65.85;98181.66;5092223;28;20339;-57
2022/01/05 11:33:02;;;;;;;12.23;2.20;;;;;;;2.30;66.78;98186.25;5091812;28;20283;-57
2022/01/05 11:35:29;;;;;;;8.10;2.67;;;;;;;2.41;66.83;98180.34;5093266;28;20205;-57
2022/01/05 11:37:56;;;;;;;7.13;2.00;;;;;;;2.45;66.83;98195.47;5087848;28;20192;-58
2022/01/05 11:40:23;;;;;;;11.33;2.43;;;;;;;2.62;65.62;98198.59;5091458;28;20201;-57
2022/01/05 11:42:52;;;;;;;7.10;1.93;;;;;;;2.51;67.29;98189.88;5091853;28;20206;-58
2022/01/05 11:45:32;;;;;;;12.17;2.57;;;;;;;2.50;66.83;98193.38;5091941;28;20262;-56
2022/01/05 11:48:16;;;;;;;8.57;2.20;;;;;;;2.46;67.81;98191.16;5093087;28;20903;-55
2022/01/05 11:50:45;;;;;;;9.97;2.63;;;;;;;2.28;68.67;98190.69;5092715;28;20218;-57
2022/01/05 11:53:12;;;;;;;7.07;2.20;;;;;;;2.28;68.91;98196.69;5090650;28;20194;-55
2022/01/05 11:56:09;;;;;;;10.80;2.50;;;;;;;2.33;67.13;98199.75;5085832;28;20228;-57
2022/01/05 11:58:37;;;;;;;8.10;1.90;;;;;;;2.30;65.35;98194.00;5076576;28;20719;-57
2022/01/05 12:01:33;;;;;;;7.50;2.10;;;;;;;2.33;64.86;98199.75;5092624;28;20749;-57
2022/01/05 12:04:20;;;;;;;7.37;2.27;;;;;;;2.55;64.51;98210.28;5093407;28;20206;-58
2022/01/05 12:07:04;;;;;;;17.67;2.67;;;;;;;2.59;63.46;98201.41;5088071;28;20227;-58
2022/01/05 12:09:33;;;;;;;6.33;2.03;;;;;;;2.50;63.26;98202.88;5086588;28;20190;-57
2022/01/05 12:12:20;;;;;;;6.20;2.00;;;;;;;2.60;65.31;98185.00;5089535;28;20193;-57
2022/01/05 12:14:48;;;;;;;12.03;1.93;;;;;;;2.73;63.73;98197.81;5092976;28;20540;-58
2022/01/05 12:17:18;;;;;;;11.50;1.97;;;;;;;2.36;65.32;98188.41;5092327;28;20216;-58
2022/01/05 12:20:15;;;;;;;9.87;2.43;;;;;;;2.72;62.98;98194.41;5092011;28;20251;-55
2022/01/05 12:22:43;;;;;;;9.33;2.20;;;;;;;2.53;63.52;98179.47;5029452;28;20196;-58
2022/01/05 12:25:13;;;;;;;14.37;2.20;;;;;;;2.61;65.17;98179.75;5076013;28;20194;-58